Terminal Aerodrome Forecast
Issued by NWS Quad Cities IA IL

Home | Current Version | Previous Version | Text Only | Print | Product List | Glossary On
Versions: 1 2 3 4 5 6 7 8 9 10 11 12 13 14 15
000
FTUS43 KDVN 012320
TAFDBQ
TAF
KDBQ 012320Z 0200/0224 24007KT P6SM BKN200
     FM020300 20006KT P6SM SCT200
     FM021000 21011KT P6SM VCTS SCT035CB BKN100
     FM021400 23017G23KT P6SM SCT150
     FM021700 23020G27KT P6SM SCT050=

USA.gov is the U.S. government's official web portal to all federal, state and local government web resources and services.